Time;durP1;ratioP1;P1;durP2;ratioP2;P2;SDS_P1;SDS_P2;PMS_P1;PMS_P2;Temp;Humidity;BMP_temperature;BMP_pressure;BME280_temperature;BME280_humidity;BME280_pressure;Samples;Min_cycle;Max_cycle;Signal;HPM_P1;HPM_P2
2022/02/05 00:00:47;;;;;;;11.85;3.33;;;;;;;1.46;97.89;98971.53;5084817;28;20054;-69
2022/02/05 00:03:23;;;;;;;8.90;3.53;;;;;;;1.42;98.32;98986.13;5085033;28;20013;-69
2022/02/05 00:05:55;;;;;;;10.35;2.80;;;;;;;1.43;98.38;98984.44;5084980;28;20212;-69
2022/02/05 00:40:59;;;;;;;12.40;3.17;;;;;;;1.41;99.35;99017.22;5082974;28;20059;-69
2022/02/05 00:43:27;;;;;;;6.10;2.30;;;;;;;1.38;99.53;99022.34;5083762;28;20028;-69
2022/02/05 00:45:55;;;;;;;8.30;3.00;;;;;;;1.36;99.20;99029.22;5083580;28;20024;-69
2022/02/05 00:48:21;;;;;;;12.20;3.55;;;;;;;1.42;99.25;99029.34;5083883;28;20016;-69
2022/02/05 00:50:53;;;;;;;7.20;3.83;;;;;;;1.45;98.90;99029.41;5083900;28;20020;-69
2022/02/05 00:56:47;;;;;;;4.43;2.45;;;;;;;1.39;99.06;99013.75;5085072;28;20025;-69
2022/02/05 00:58:45;;;;;;;7.00;2.97;;;;;;;1.29;99.07;99022.13;5081139;28;20029;-69
2022/02/05 01:01:11;;;;;;;16.27;3.17;;;;;;;1.29;99.44;99022.13;5084657;28;20083;-69
2022/02/05 01:03:37;;;;;;;13.63;3.65;;;;;;;1.23;99.48;99029.78;5084648;28;20062;-69
2022/02/05 01:06:05;;;;;;;7.57;3.00;;;;;;;1.21;99.27;99026.28;5083442;28;20103;-69
2022/02/05 01:08:31;;;;;;;7.32;3.28;;;;;;;1.20;99.45;99032.31;5084631;28;20087;-69
2022/02/05 01:10:57;;;;;;;14.77;3.28;;;;;;;1.20;99.97;99045.28;5084464;28;20343;-69
2022/02/05 01:13:23;;;;;;;16.90;3.40;;;;;;;1.14;99.98;99034.75;5084301;28;20024;-69
2022/02/05 01:18:37;;;;;;;5.53;2.38;;;;;;;1.19;100.00;99046.09;5052364;28;20040;-69
2022/02/05 01:23:44;;;;;;;8.07;2.73;;;;;;;1.19;100.00;99056.47;5084587;28;20020;-69
2022/02/05 01:29:04;;;;;;;8.68;1.98;;;;;;;1.26;100.00;99063.53;5048503;28;20037;-69
2022/02/05 01:31:31;;;;;;;16.35;3.35;;;;;;;1.21;100.00;99066.03;5081422;28;20137;-69
2022/02/05 01:34:08;;;;;;;9.10;2.45;;;;;;;1.21;100.00;99080.72;5084319;28;20082;-69
2022/02/05 02:16:57;;;;;;;3.60;2.40;;;;;;;1.09;100.00;99098.56;5083633;28;20020;-69
2022/02/05 02:19:37;;;;;;;2.42;1.58;;;;;;;1.06;100.00;99098.47;5083068;28;20083;-69
2022/02/05 02:22:11;;;;;;;9.52;2.45;;;;;;;1.03;100.00;99100.97;5079840;28;20028;-69
2022/02/05 02:32:06;;;;;;;6.13;1.95;;;;;;;1.01;100.00;99115.66;5082777;28;20013;-69
2022/02/05 02:34:37;;;;;;;5.40;2.60;;;;;;;1.03;100.00;99113.94;5083202;28;20040;-69
2022/02/05 02:37:13;;;;;;;2.75;1.70;;;;;;;1.08;100.00;99115.81;5083379;28;20050;-69
2022/02/05 02:40:00;;;;;;;8.77;2.45;;;;;;;1.02;100.00;99104.44;5079109;28;20016;-69
2022/02/05 02:42:24;;;;;;;2.72;1.70;;;;;;;0.98;100.00;99112.97;5081286;28;20091;-69
2022/02/05 02:44:49;;;;;;;4.55;1.70;;;;;;;1.01;100.00;99126.88;5082972;28;20042;-69
2022/02/05 02:47:15;;;;;;;5.40;2.53;;;;;;;0.98;100.00;99119.00;5082831;28;20020;-69
2022/02/05 02:50:00;;;;;;;2.17;1.70;;;;;;;1.01;100.00;99118.22;5082840;28;20328;-69
2022/02/05 02:57:59;;;;;;;6.88;2.45;;;;;;;0.98;100.00;99138.88;5079372;28;20039;-69
2022/02/05 03:00:25;;;;;;;16.27;2.17;;;;;;;1.03;100.00;99139.88;5082754;28;20027;-69
2022/02/05 03:02:52;;;;;;;8.90;2.13;;;;;;;1.04;100.00;99139.06;5082620;28;20016;-69
2022/02/05 03:05:17;;;;;;;6.32;2.42;;;;;;;1.01;100.00;99142.41;5082599;28;20027;-69
2022/02/05 03:07:43;;;;;;;18.42;1.88;;;;;;;0.99;100.00;99156.19;5082570;28;20223;-69
2022/02/05 03:10:08;;;;;;;3.67;2.15;;;;;;;0.96;100.00;99145.72;5082760;28;20032;-69
2022/02/05 03:12:37;;;;;;;3.38;1.75;;;;;;;0.90;100.00;99136.09;5082566;28;20127;-69
2022/02/05 03:15:04;;;;;;;12.40;1.65;;;;;;;0.83;100.00;99144.53;5082575;28;20031;-69
2022/02/05 03:17:38;;;;;;;9.18;2.97;;;;;;;0.81;100.00;99146.22;5082585;28;20033;-69
2022/02/05 03:20:04;;;;;;;5.07;2.50;;;;;;;0.82;100.00;99157.47;5079662;28;20305;-69
2022/02/05 03:22:30;;;;;;;6.75;2.05;;;;;;;0.80;100.00;99157.41;5082442;28;20024;-69
2022/02/05 03:24:56;;;;;;;11.90;3.28;;;;;;;0.79;100.00;99154.78;5082397;28;20044;-69
2022/02/05 03:27:22;;;;;;;3.92;2.20;;;;;;;0.77;100.00;99161.63;5082709;28;20016;-69
2022/02/05 03:29:49;;;;;;;4.10;2.17;;;;;;;0.88;100.00;99165.41;5082363;28;20048;-69
2022/02/05 03:32:16;;;;;;;7.57;2.35;;;;;;;0.84;100.00;99166.13;5082128;28;20087;-69
2022/02/05 03:34:42;;;;;;;8.20;1.95;;;;;;;0.77;100.00;99165.09;5082622;28;20017;-69
2022/02/05 03:37:08;;;;;;;3.17;1.55;;;;;;;0.76;100.00;99167.66;5082287;28;20187;-69
2022/02/05 03:39:34;;;;;;;2.95;1.75;;;;;;;0.77;100.00;99179.75;5082065;28;20027;-69
2022/02/05 03:41:59;;;;;;;2.30;1.42;;;;;;;0.78;100.00;99186.69;5082313;28;20020;-69
2022/02/05 03:44:25;;;;;;;2.13;1.40;;;;;;;0.71;100.00;99196.00;5082284;28;20088;-69
2022/02/05 03:46:53;;;;;;;1.75;1.65;;;;;;;0.74;100.00;99190.91;5082259;28;20012;-69
2022/02/05 03:49:19;;;;;;;5.55;1.45;;;;;;;0.75;100.00;99196.97;5082446;28;20048;-69
2022/02/05 03:51:46;;;;;;;8.40;1.88;;;;;;;0.72;100.00;99200.34;5082398;28;20380;-69
2022/02/05 03:54:13;;;;;;;5.20;2.58;;;;;;;0.72;100.00;99196.88;5082387;28;20032;-69
2022/02/05 03:56:39;;;;;;;4.45;2.30;;;;;;;0.62;100.00;99190.56;5082298;28;20039;-69
2022/02/05 03:59:05;;;;;;;3.25;1.67;;;;;;;0.62;100.00;99198.34;5082058;28;20307;-69
2022/02/05 04:01:30;;;;;;;6.80;2.05;;;;;;;0.56;100.00;99212.81;5078805;28;20021;-69
2022/02/05 04:03:55;;;;;;;5.50;1.67;;;;;;;0.55;100.00;99205.88;5082318;28;20035;-69
2022/02/05 04:06:21;;;;;;;11.63;2.58;;;;;;;0.49;100.00;99204.00;5082096;28;20027;-69
2022/02/05 04:08:48;;;;;;;13.68;3.33;;;;;;;0.53;100.00;99210.16;5084507;28;20025;-69
2022/02/05 04:11:49;;;;;;;4.50;1.92;;;;;;;0.50;100.00;99215.25;5085833;28;20026;-69
2022/02/05 04:16:47;;;;;;;9.63;2.50;;;;;;;0.48;100.00;99219.50;5082475;28;20031;-69
2022/02/05 04:19:13;;;;;;;8.40;2.38;;;;;;;0.46;100.00;99223.75;5085522;28;20367;-69
2022/02/05 04:21:38;;;;;;;7.18;2.40;;;;;;;0.40;100.00;99229.63;5085391;28;20044;-69
2022/02/05 04:24:04;;;;;;;4.45;2.05;;;;;;;0.41;100.00;99225.34;5081572;28;20079;-69
2022/02/05 04:26:31;;;;;;;5.78;2.28;;;;;;;0.41;100.00;99230.50;5085412;28;20032;-69
2022/02/05 04:28:56;;;;;;;4.60;2.42;;;;;;;0.36;100.00;99232.06;5085357;28;20087;-69
2022/02/05 04:31:22;;;;;;;7.25;2.90;;;;;;;0.39;100.00;99229.59;5085158;28;20056;-69
2022/02/05 04:33:48;;;;;;;11.95;2.50;;;;;;;0.40;100.00;99233.91;5085210;28;20201;-69
2022/02/05 04:36:15;;;;;;;8.50;2.97;;;;;;;0.39;100.00;99232.16;5085186;28;20024;-69
2022/02/05 04:38:43;;;;;;;6.22;2.55;;;;;;;0.40;100.00;99236.50;5085177;28;20020;-69
2022/02/05 04:41:24;;;;;;;5.97;2.78;;;;;;;0.39;100.00;99242.53;5085406;28;20016;-69
2022/02/05 05:00:03;;;;;;;5.32;2.85;;;;;;;0.23;100.00;99242.91;5052599;28;20024;-69
2022/02/05 05:03:09;;;;;;;7.60;3.03;;;;;;;0.24;100.00;99242.94;5084894;28;20016;-69
2022/02/05 05:08:14;;;;;;;16.13;3.42;;;;;;;0.30;100.00;99247.41;5084797;28;20291;-69
2022/02/05 05:13:18;;;;;;;6.07;3.72;;;;;;;0.35;100.00;99256.22;5084497;28;20351;-69
2022/02/05 05:21:10;;;;;;;7.78;3.35;;;;;;;0.47;100.00;99266.94;5081656;28;20018;-69
2022/02/05 05:23:35;;;;;;;12.48;3.03;;;;;;;0.51;100.00;99261.91;5084049;28;20024;-69
2022/02/05 05:26:01;;;;;;;6.90;3.42;;;;;;;0.54;100.00;99261.13;5084313;28;20043;-69
2022/02/05 05:28:26;;;;;;;5.55;2.80;;;;;;;0.58;100.00;99262.97;5084008;28;20232;-69
2022/02/05 05:30:52;;;;;;;10.18;2.80;;;;;;;0.67;100.00;99266.72;5083953;28;20051;-69
2022/02/05 05:33:17;;;;;;;11.30;3.45;;;;;;;0.72;100.00;99270.28;5083960;28;20021;-69
2022/02/05 05:35:43;;;;;;;9.43;4.10;;;;;;;0.83;100.00;99276.69;5084043;28;20032;-69
2022/02/05 05:38:09;;;;;;;7.68;3.30;;;;;;;0.86;100.00;99268.09;5083737;28;20122;-69
2022/02/05 05:40:39;;;;;;;7.05;3.42;;;;;;;0.88;100.00;99267.31;5084002;28;20059;-69
2022/02/05 05:43:16;;;;;;;13.00;2.50;;;;;;;0.88;100.00;99266.44;5083880;28;20008;-69
2022/02/05 05:49:10;;;;;;;5.35;2.83;;;;;;;1.05;100.00;99266.09;5083815;28;20043;-69
2022/02/05 05:51:17;;;;;;;10.02;2.70;;;;;;;1.05;100.00;99265.19;5078749;28;20033;-69
2022/02/05 05:53:42;;;;;;;3.70;2.17;;;;;;;1.18;100.00;99267.28;5083797;28;20070;-69
2022/02/05 05:56:08;;;;;;;10.40;3.78;;;;;;;1.22;100.00;99269.13;5083388;28;20028;-69
2022/02/05 05:58:33;;;;;;;6.80;2.47;;;;;;;1.26;100.00;99270.97;5083803;28;20024;-69
2022/02/05 06:00:59;;;;;;;5.70;2.88;;;;;;;1.26;100.00;99270.97;5083477;28;20028;-69
2022/02/05 06:03:24;;;;;;;4.85;2.35;;;;;;;1.27;100.00;99268.41;5083510;28;20020;-69
2022/02/05 06:05:50;;;;;;;7.15;2.90;;;;;;;1.36;100.00;99273.00;5083483;28;20024;-69
2022/02/05 06:08:16;;;;;;;11.65;2.80;;;;;;;1.39;100.00;99273.06;5083458;28;20302;-69
2022/02/05 06:10:43;;;;;;;8.80;2.67;;;;;;;1.43;100.00;99269.72;5083349;28;20062;-69
2022/02/05 06:13:10;;;;;;;12.98;3.67;;;;;;;1.45;100.00;99278.38;5083294;28;20029;-69
2022/02/05 06:15:40;;;;;;;4.35;2.33;;;;;;;1.51;100.00;99273.38;5083387;28;20036;-69
2022/02/05 06:18:07;;;;;;;9.00;3.00;;;;;;;1.56;100.00;99276.97;5080479;28;20017;-69
2022/02/05 06:20:32;;;;;;;5.43;2.45;;;;;;;1.56;100.00;99277.88;5079664;28;20189;-69
2022/02/05 06:22:58;;;;;;;3.58;1.92;;;;;;;1.65;100.00;99275.47;5083133;28;20026;-69
2022/02/05 06:25:23;;;;;;;10.07;2.65;;;;;;;1.68;100.00;99279.91;5083213;28;20023;-69
2022/02/05 06:27:49;;;;;;;6.00;2.92;;;;;;;1.69;100.00;99276.44;5083100;28;20267;-69
2022/02/05 06:30:14;;;;;;;6.68;1.98;;;;;;;1.72;100.00;99279.13;5082171;28;20032;-69
2022/02/05 06:32:41;;;;;;;4.18;2.28;;;;;;;1.67;100.00;99283.31;5082958;28;20070;-69
2022/02/05 06:35:07;;;;;;;5.65;2.90;;;;;;;1.70;100.00;99280.78;5083014;28;20016;-69
2022/02/05 06:37:33;;;;;;;8.18;2.55;;;;;;;1.74;100.00;99283.50;5083022;28;20033;-69
2022/02/05 06:39:58;;;;;;;5.60;2.78;;;;;;;1.73;100.00;99289.53;5082804;28;20051;-69
2022/02/05 06:42:24;;;;;;;6.45;2.75;;;;;;;1.78;100.00;99292.25;5082932;28;20074;-69
2022/02/05 06:44:49;;;;;;;13.52;3.00;;;;;;;1.78;100.00;99294.84;5082964;28;20016;-69
2022/02/05 06:47:15;;;;;;;6.88;2.50;;;;;;;1.87;100.00;99310.66;5082865;28;20083;-69
2022/02/05 06:49:41;;;;;;;13.10;2.65;;;;;;;1.90;100.00;99316.78;5082869;28;20021;-69
2022/02/05 06:52:07;;;;;;;12.32;2.83;;;;;;;1.97;99.94;99323.03;5083137;28;20099;-69
2022/02/05 06:54:32;;;;;;;10.05;2.75;;;;;;;1.94;99.91;99322.94;5082560;28;20418;-69
2022/02/05 06:56:58;;;;;;;11.57;3.15;;;;;;;1.95;99.79;99329.88;5082820;28;20023;-69
2022/02/05 06:59:23;;;;;;;5.63;3.15;;;;;;;1.99;99.84;99331.72;5082764;28;20062;-69
2022/02/05 07:01:49;;;;;;;7.57;2.78;;;;;;;1.92;100.00;99345.38;5082667;28;20076;-69
2022/02/05 07:04:15;;;;;;;10.60;3.05;;;;;;;2.01;100.00;99340.44;5082850;28;20087;-69
2022/02/05 07:06:40;;;;;;;9.15;3.15;;;;;;;1.95;100.00;99345.47;5080277;28;20021;-69
2022/02/05 07:09:06;;;;;;;5.45;2.97;;;;;;;1.99;100.00;99352.47;5082664;28;20273;-69
2022/02/05 07:11:34;;;;;;;9.43;4.00;;;;;;;2.04;100.00;99356.09;5082573;28;20017;-69
2022/02/05 07:14:01;;;;;;;7.22;3.42;;;;;;;2.11;100.00;99355.41;5082794;28;20088;-69
2022/02/05 07:16:33;;;;;;;13.35;2.53;;;;;;;2.19;100.00;99359.06;5082761;28;20372;-69
2022/02/05 07:19:21;;;;;;;5.72;3.08;;;;;;;2.17;100.00;99360.75;5082977;28;20312;-69
2022/02/05 07:21:48;;;;;;;14.02;3.83;;;;;;;2.24;99.88;99360.03;5082861;28;20185;-69
2022/02/05 07:29:12;;;;;;;10.05;3.67;;;;;;;2.31;99.63;99367.13;5082532;28;20028;-69
2022/02/05 07:29:46;;;;;;;6.78;3.63;;;;;;;2.33;99.45;99362.88;5082432;28;20094;-69
2022/02/05 07:32:13;;;;;;;7.10;3.15;;;;;;;2.35;99.36;99369.00;5082395;28;20208;-69
2022/02/05 07:34:38;;;;;;;16.30;4.32;;;;;;;2.29;99.74;99361.06;5082333;28;20032;-69
2022/02/05 07:37:04;;;;;;;13.07;4.05;;;;;;;2.36;100.00;99364.66;5082485;28;20016;-69
2022/02/05 07:39:34;;;;;;;9.90;4.30;;;;;;;2.37;100.00;99364.69;5082372;28;20020;-69
2022/02/05 07:42:01;;;;;;;10.55;4.20;;;;;;;2.42;99.61;99359.63;5083464;28;20044;-69
2022/02/05 07:44:26;;;;;;;9.85;3.78;;;;;;;2.43;99.68;99362.25;5086415;28;20016;-69
2022/02/05 07:46:53;;;;;;;6.05;3.30;;;;;;;2.36;99.54;99359.47;5086099;28;20016;-69
2022/02/05 07:49:22;;;;;;;8.13;3.33;;;;;;;2.45;99.78;99364.88;5086350;28;20023;-69
2022/02/05 07:51:49;;;;;;;11.88;3.50;;;;;;;2.54;99.49;99360.81;5085793;28;20126;-69
2022/02/05 07:54:15;;;;;;;6.45;3.88;;;;;;;2.60;99.19;99366.16;5086415;28;20358;-69
2022/02/05 07:56:50;;;;;;;17.00;4.05;;;;;;;2.60;99.38;99366.16;5085850;28;20020;-69
2022/02/05 07:59:17;;;;;;;13.90;4.38;;;;;;;2.68;99.21;99372.38;5086147;28;20023;-69
2022/02/05 08:01:43;;;;;;;9.85;3.55;;;;;;;2.73;98.81;99378.59;5085789;28;20373;-69
2022/02/05 08:04:09;;;;;;;13.20;5.00;;;;;;;2.73;98.48;99383.78;5085847;28;20043;-69
2022/02/05 08:06:35;;;;;;;10.20;3.83;;;;;;;2.81;98.67;99387.41;5084140;28;20023;-69
2022/02/05 08:09:14;;;;;;;15.48;4.18;;;;;;;2.75;98.38;99383.81;5084943;28;20071;-69
2022/02/05 08:11:48;;;;;;;16.27;4.70;;;;;;;2.78;98.51;99389.94;5083435;28;20020;-69
2022/02/05 08:14:14;;;;;;;16.77;5.25;;;;;;;2.74;99.07;99393.31;5084746;28;20027;-69
2022/02/05 08:19:06;;;;;;;8.85;4.30;;;;;;;2.80;98.50;99390.88;5084546;28;20017;-69
2022/02/05 08:21:31;;;;;;;15.35;4.80;;;;;;;2.89;98.30;99391.09;5084279;28;20024;-69
2022/02/05 08:23:57;;;;;;;10.50;4.68;;;;;;;2.93;98.86;99392.91;5084444;28;20021;-69
2022/02/05 08:26:28;;;;;;;15.98;4.53;;;;;;;3.02;98.48;99403.53;5084373;28;20021;-69
2022/02/05 08:28:54;;;;;;;8.80;3.75;;;;;;;3.03;97.89;99396.56;5084459;28;20024;-69
2022/02/05 08:31:21;;;;;;;9.88;4.55;;;;;;;2.94;98.16;99392.06;5083864;28;20039;-69
2022/02/05 08:33:46;;;;;;;13.93;5.15;;;;;;;2.97;98.25;99394.72;5084281;28;20271;-69
2022/02/05 08:36:12;;;;;;;11.13;4.25;;;;;;;2.96;98.05;99390.38;5084220;28;20040;-69
2022/02/05 08:38:37;;;;;;;7.43;3.63;;;;;;;2.94;98.24;99394.66;5083889;28;20035;-69
2022/02/05 08:41:04;;;;;;;10.50;4.30;;;;;;;3.02;98.30;99406.13;5084188;28;20032;-69
2022/02/05 08:43:30;;;;;;;13.65;4.97;;;;;;;3.02;98.21;99413.03;5084001;28;20328;-69
2022/02/05 08:45:57;;;;;;;7.70;3.83;;;;;;;3.09;98.00;99409.72;5083446;28;20063;-69
2022/02/05 08:48:22;;;;;;;10.48;5.63;;;;;;;3.17;97.63;99402.97;5084095;28;20020;-68
2022/02/05 08:50:48;;;;;;;12.65;5.30;;;;;;;3.16;97.73;99409.88;5084581;28;20284;-69
2022/02/05 08:53:19;;;;;;;13.02;4.57;;;;;;;3.21;97.56;99397.88;5084323;28;20031;-68
2022/02/05 08:55:44;;;;;;;13.35;5.07;;;;;;;3.28;97.49;99407.56;5084818;28;20088;-68
2022/02/05 08:58:10;;;;;;;7.93;4.65;;;;;;;3.24;97.46;99404.84;5087568;28;20020;-69
2022/02/05 09:00:44;;;;;;;17.13;6.05;;;;;;;3.35;98.15;99399.03;5083700;28;20043;-69
2022/02/05 09:03:21;;;;;;;12.40;4.43;;;;;;;3.42;97.92;99411.31;5065332;28;20013;-69
2022/02/05 09:05:48;;;;;;;18.40;4.80;;;;;;;3.36;98.14;99408.59;5065774;28;20031;-69
2022/02/05 09:08:28;;;;;;;12.52;4.80;;;;;;;3.47;97.61;99419.22;5065901;28;20092;-69
2022/02/05 09:13:51;;;;;;;12.45;5.53;;;;;;;3.48;98.06;99406.25;5065742;28;20075;-69
2022/02/05 09:16:16;;;;;;;17.70;5.07;;;;;;;3.58;97.39;99421.19;5065722;28;20212;-69
2022/02/05 09:18:46;;;;;;;14.05;5.28;;;;;;;3.65;97.35;99417.91;5065414;28;20025;-69
2022/02/05 09:21:12;;;;;;;13.55;5.55;;;;;;;3.76;97.11;99416.38;5065425;28;20231;-69
2022/02/05 09:23:40;;;;;;;13.98;5.53;;;;;;;3.91;96.71;99416.69;5065235;28;20037;-69
2022/02/05 09:26:11;;;;;;;12.18;4.95;;;;;;;3.98;96.02;99410.72;5047518;28;20078;-69
2022/02/05 09:28:39;;;;;;;14.35;5.47;;;;;;;4.11;96.21;99412.72;5065243;28;20017;-69
2022/02/05 09:33:34;;;;;;;10.18;4.45;;;;;;;4.32;95.99;99410.50;5065343;28;20025;-69
2022/02/05 09:36:00;;;;;;;9.10;5.07;;;;;;;4.60;95.80;99424.00;5065186;28;20289;-69
2022/02/05 09:38:26;;;;;;;14.48;4.75;;;;;;;4.84;94.60;99429.63;5065105;28;20017;-69
2022/02/05 09:40:51;;;;;;;9.27;5.28;;;;;;;5.17;94.14;99441.44;5065055;28;20088;-69
2022/02/05 09:43:23;;;;;;;26.30;5.82;;;;;;;4.94;92.88;99436.72;5065007;28;20021;-69
2022/02/05 09:45:48;;;;;;;10.82;5.38;;;;;;;4.88;92.89;99436.63;5064993;28;20025;-69
2022/02/05 09:48:18;;;;;;;26.35;6.28;;;;;;;4.84;92.90;99432.22;5064915;28;20028;-69
2022/02/05 09:50:44;;;;;;;14.18;4.40;;;;;;;4.81;93.10;99430.44;5064830;28;20070;-69
2022/02/05 09:53:17;;;;;;;11.75;4.60;;;;;;;4.82;93.05;99436.53;5064754;28;20033;-69
2022/02/05 09:55:45;;;;;;;8.70;4.25;;;;;;;4.77;92.70;99449.50;5064718;28;20021;-69
2022/02/05 09:58:11;;;;;;;12.30;4.75;;;;;;;4.69;93.57;99445.00;5064932;28;20327;-69
2022/02/05 10:00:37;;;;;;;17.58;4.95;;;;;;;4.83;93.39;99453.91;5064669;28;20016;-69
2022/02/05 10:03:03;;;;;;;8.35;4.28;;;;;;;4.88;93.54;99449.66;5064627;28;20256;-69
2022/02/05 10:05:31;;;;;;;18.20;5.00;;;;;;;4.94;93.34;99457.59;5064489;28;20025;-69
2022/02/05 10:08:01;;;;;;;9.52;4.57;;;;;;;5.25;92.99;99457.22;5064553;28;20024;-69
2022/02/05 10:10:44;;;;;;;12.98;5.20;;;;;;;5.46;91.71;99470.56;5064508;28;20028;-69
2022/02/05 10:13:21;;;;;;;20.20;5.40;;;;;;;5.22;92.32;99475.44;5064419;28;20251;-69
2022/02/05 10:15:53;;;;;;;10.82;4.38;;;;;;;5.54;91.85;99463.72;5064404;28;20031;-69
2022/02/05 10:18:31;;;;;;;18.98;4.88;;;;;;;5.59;91.20;99462.03;5064656;28;20024;-69
2022/02/05 10:21:19;;;;;;;13.75;4.18;;;;;;;5.61;91.52;99460.31;5064394;28;20344;-69
2022/02/05 10:24:01;;;;;;;16.25;4.78;;;;;;;6.00;90.02;99453.00;5064056;28;20020;-69
2022/02/05 10:26:30;;;;;;;20.10;4.03;;;;;;;6.33;87.86;99453.41;5064228;28;20358;-69
2022/02/05 10:29:07;;;;;;;11.32;4.35;;;;;;;6.31;88.02;99457.72;5064216;28;20021;-69
2022/02/05 10:32:08;;;;;;;9.65;3.53;;;;;;;6.49;88.10;99452.69;5063874;28;20055;-69
2022/02/05 10:35:36;;;;;;;13.60;4.15;;;;;;;6.62;86.85;99459.78;5064360;28;20215;-69
2022/02/05 10:37:47;;;;;;;11.63;3.63;;;;;;;6.43;87.86;99470.94;5053401;28;20248;-69
2022/02/05 10:40:20;;;;;;;9.00;3.50;;;;;;;6.48;86.65;99461.38;5063980;28;20025;-69
2022/02/05 10:43:03;;;;;;;19.48;4.13;;;;;;;6.33;87.14;99463.88;5064007;28;20017;-69
2022/02/05 10:45:49;;;;;;;9.88;3.28;;;;;;;6.55;87.66;99457.94;5063938;28;20033;-69
2022/02/05 10:48:18;;;;;;;11.50;3.05;;;;;;;6.90;87.57;99456.56;5063918;28;20075;-69
2022/02/05 10:50:45;;;;;;;12.27;3.80;;;;;;;7.11;85.98;99455.81;5063886;28;20334;-69
2022/02/05 10:53:25;;;;;;;9.25;3.55;;;;;;;7.46;84.65;99443.81;5063792;28;20032;-69
2022/02/05 10:58:41;;;;;;;5.50;2.58;;;;;;;7.73;82.31;99434.41;5064107;28;20021;-69
2022/02/05 11:07:04;;;;;;;9.18;2.67;;;;;;;8.93;81.46;99443.44;5063759;28;20284;-69
2022/02/05 11:09:29;;;;;;;11.90;2.80;;;;;;;8.97;81.30;99440.81;5063666;28;20066;-69
2022/02/05 11:20:12;;;;;;;9.50;2.83;;;;;;;7.95;81.88;99431.00;5067724;28;20025;-69
2022/02/05 11:22:46;;;;;;;10.48;3.28;;;;;;;7.83;83.69;99430.94;5067675;28;20024;-69
2022/02/05 11:25:13;;;;;;;13.50;3.03;;;;;;;7.72;84.34;99432.63;5067566;28;20216;-69
2022/02/05 11:27:47;;;;;;;9.38;3.05;;;;;;;7.66;84.27;99429.13;5067641;28;20431;-69
2022/02/05 11:30:34;;;;;;;15.27;2.90;;;;;;;7.59;84.26;99422.09;5067361;28;20360;-69
2022/02/05 11:33:05;;;;;;;18.42;3.65;;;;;;;7.63;84.72;99426.47;5067368;28;20104;-69
2022/02/05 11:38:32;;;;;;;7.72;2.20;;;;;;;7.49;84.54;99421.16;5067451;28;20027;-69
2022/02/05 11:40:59;;;;;;;6.50;2.45;;;;;;;7.40;85.16;99417.63;5067387;28;20139;-69
2022/02/05 11:43:30;;;;;;;15.43;2.97;;;;;;;7.69;84.10;99413.41;5067324;28;20087;-69
2022/02/05 11:46:13;;;;;;;12.43;2.60;;;;;;;7.61;84.90;99413.38;5067315;28;20067;-69
2022/02/05 11:48:51;;;;;;;12.57;3.38;;;;;;;7.48;84.20;99411.56;5067212;28;20224;-69
2022/02/05 11:51:18;;;;;;;12.15;2.42;;;;;;;7.56;84.77;99415.09;5067139;28;20029;-69
2022/02/05 11:53:56;;;;;;;14.82;3.33;;;;;;;7.66;85.81;99416.88;5066992;28;20025;-69
2022/02/05 11:59:25;;;;;;;15.32;3.47;;;;;;;7.88;85.14;99416.09;5066965;28;20013;-69
2022/02/05 12:02:09;;;;;;;5.07;2.55;;;;;;;8.01;85.41;99420.50;5066961;28;20084;-69
2022/02/05 12:04:34;;;;;;;20.65;3.92;;;;;;;8.01;85.52;99417.03;5066854;28;20084;-69
2022/02/05 12:07:07;;;;;;;6.97;2.70;;;;;;;7.77;85.50;99428.28;5066893;28;20024;-69
2022/02/05 12:09:46;;;;;;;;;;;;;;;7.90;84.53;99421.34;5067491;28;20027;-69
2022/02/05 12:12:34;;;;;;;11.48;2.38;;;;;;;7.87;85.35;99411.72;5066693;28;19908;-69
2022/02/05 12:15:16;;;;;;;5.32;2.67;;;;;;;7.79;85.07;99408.19;5066784;28;20091;-69
2022/02/05 12:23:30;;;;;;;11.73;2.92;;;;;;;7.56;84.34;99415.09;5066493;28;20174;-69
2022/02/05 12:25:59;;;;;;;12.68;2.80;;;;;;;7.46;84.72;99408.06;5066416;28;20028;-69
2022/02/05 12:28:34;;;;;;;15.13;3.17;;;;;;;7.44;84.77;99409.78;5065253;28;20029;-69
2022/02/05 12:31:06;;;;;;;12.23;2.92;;;;;;;7.38;84.79;99404.53;5066293;28;20040;-69
2022/02/05 12:33:44;;;;;;;10.85;2.58;;;;;;;7.29;85.03;99399.25;5066563;28;20074;-69
2022/02/05 12:36:10;;;;;;;24.27;3.88;;;;;;;7.32;85.06;99387.91;5066554;28;20233;-69
2022/02/05 12:38:43;;;;;;;15.85;3.50;;;;;;;7.32;86.26;99388.78;5066210;28;20029;-69
2022/02/05 12:41:12;;;;;;;18.65;3.25;;;;;;;7.11;85.93;99388.63;5066215;28;20048;-69
2022/02/05 12:44:13;;;;;;;29.48;3.90;;;;;;;7.04;87.09;99391.22;5066124;28;20071;-69
2022/02/05 12:46:48;;;;;;;9.13;2.42;;;;;;;7.01;87.90;99392.06;5004981;28;20030;-69
2022/02/05 12:49:42;;;;;;;6.75;2.58;;;;;;;7.05;87.35;99399.06;5004978;28;20349;-69
2022/02/05 12:52:04;;;;;;;13.68;3.05;;;;;;;6.98;88.41;99389.44;5003767;28;20046;-69
2022/02/05 12:54:31;;;;;;;8.00;2.58;;;;;;;6.90;88.97;99393.75;5003525;28;20034;-69
2022/02/05 12:56:59;;;;;;;17.23;3.13;;;;;;;6.84;89.39;99387.59;5003445;28;20029;-68
2022/02/05 12:59:38;;;;;;;10.25;2.92;;;;;;;6.87;89.83;99383.25;5003638;28;20026;-69
2022/02/05 13:02:06;;;;;;;8.65;2.78;;;;;;;6.86;89.79;99381.50;5003583;28;20034;-69
2022/02/05 13:04:34;;;;;;;5.93;2.65;;;;;;;6.71;90.42;99391.88;5003703;28;20030;-69
2022/02/05 13:07:15;;;;;;;9.95;2.35;;;;;;;6.71;89.59;99391.88;5001766;28;20045;-69
2022/02/05 13:09:51;;;;;;;5.88;1.92;;;;;;;6.76;90.13;99395.38;5002383;28;20074;-69
2022/02/05 13:12:20;;;;;;;7.22;2.25;;;;;;;6.81;89.43;99393.69;4999701;28;20034;-69
2022/02/05 13:15:17;;;;;;;12.38;2.60;;;;;;;6.69;89.23;99393.59;5002387;28;20069;-69
2022/02/05 13:36:24;;;;;;;15.18;2.95;;;;;;;6.74;91.06;99376.16;5083512;28;20220;-69
2022/02/05 13:39:22;;;;;;;5.53;2.27;;;;;;;6.58;93.27;99379.53;5079821;28;20020;-69
2022/02/05 13:41:51;;;;;;;8.18;2.47;;;;;;;6.40;92.48;99369.78;5082071;28;20040;-69
2022/02/05 13:44:21;;;;;;;7.35;2.08;;;;;;;6.38;92.83;99373.25;5082595;28;20073;-69
2022/02/05 13:47:04;;;;;;;7.30;2.20;;;;;;;6.41;93.52;99376.78;5082414;28;20016;-69
2022/02/05 13:49:30;;;;;;;4.70;1.67;;;;;;;6.44;93.17;99371.59;5082888;28;20024;-69
2022/02/05 13:52:14;;;;;;;10.60;2.00;;;;;;;6.37;93.37;99369.75;5083143;28;20296;-69
2022/02/05 13:54:42;;;;;;;3.58;1.42;;;;;;;6.31;93.37;99364.50;5082943;28;20122;-69
2022/02/05 13:57:12;;;;;;;5.88;1.83;;;;;;;6.28;93.33;99367.09;5082794;28;20320;-69
2022/02/05 13:59:40;;;;;;;6.72;2.13;;;;;;;6.34;93.46;99368.88;5079085;28;20021;-69
2022/02/05 14:02:19;;;;;;;7.03;2.83;;;;;;;6.19;94.90;99373.94;5082309;28;20076;-69
2022/02/05 14:05:11;;;;;;;9.98;2.85;;;;;;;6.30;94.71;99367.09;5080816;28;20088;-69
2022/02/05 14:07:47;;;;;;;7.57;2.53;;;;;;;6.31;94.79;99363.59;5083647;28;20088;-69
2022/02/05 14:10:18;;;;;;;14.15;2.85;;;;;;;6.23;94.51;99360.91;5083609;28;20054;-69
2022/02/05 14:12:52;;;;;;;5.50;2.88;;;;;;;6.26;94.94;99360.06;5082272;28;20321;-69
2022/02/05 14:15:17;;;;;;;10.13;3.58;;;;;;;6.14;95.17;99355.59;5083477;28;20220;-69
2022/02/05 14:17:46;;;;;;;10.55;3.13;;;;;;;6.14;95.82;99354.75;5083405;28;20024;-69
2022/02/05 14:20:13;;;;;;;7.40;2.40;;;;;;;6.21;95.29;99357.41;5083364;28;20016;-69
2022/02/05 14:22:41;;;;;;;23.70;3.13;;;;;;;6.18;95.92;99366.97;5083332;28;20316;-69
2022/02/05 14:25:30;;;;;;;16.42;3.33;;;;;;;6.09;95.47;99361.66;5081832;28;20189;-69
2022/02/05 14:28:00;;;;;;;14.82;3.15;;;;;;;6.16;95.15;99363.47;5082215;28;20021;-69
2022/02/05 14:30:28;;;;;;;16.40;3.75;;;;;;;6.17;95.08;99365.22;5082219;28;20265;-69
2022/02/05 14:32:54;;;;;;;12.05;3.50;;;;;;;6.14;95.27;99357.38;5082249;28;20031;-69
2022/02/05 14:40:47;;;;;;;5.10;2.08;;;;;;;6.18;93.73;99346.06;5079621;28;20346;-69
2022/02/05 14:43:16;;;;;;;9.07;2.17;;;;;;;6.19;93.45;99337.34;5082403;28;20036;-69
2022/02/05 14:45:41;;;;;;;10.30;2.40;;;;;;;6.10;94.33;99334.66;5082681;28;20032;-69
2022/02/05 14:48:07;;;;;;;12.35;2.67;;;;;;;6.20;94.19;99331.25;5083107;28;20409;-68
2022/02/05 14:50:33;;;;;;;11.35;2.58;;;;;;;6.16;94.13;99337.31;5082844;28;20321;-69
2022/02/05 14:52:58;;;;;;;8.13;2.35;;;;;;;6.05;94.30;99333.75;5082147;28;20032;-68
2022/02/05 14:55:25;;;;;;;10.88;2.78;;;;;;;5.94;94.53;99327.53;5082877;28;20017;-68
2022/02/05 14:57:50;;;;;;;8.70;2.70;;;;;;;5.93;95.29;99333.63;5082866;28;20087;-68
2022/02/05 15:00:16;;;;;;;10.43;2.90;;;;;;;5.83;96.04;99329.16;5083023;28;20086;-68